39TX weather

Sony Microelectronics Helistop
San Antonio, Texas, United States

Public forecast

Using degrees Fahrenheit for public forecast. Weather courtesy of forecast.io.

METAR (pilot weather report)

Closest report is Lackland Air Force Base, 4.8 nm (8.8 km) SE. Retrieved 2019/09/16 06:56 UTC (12 minutes ago):

KSKF 160656Z AUTO 00000KT 10SM FEW085 25/20 A3002 RMK AO2 SLP158 T02500204 $

TAF (pilot weather forecast)

Closest forecast is Lackland Air Force Base, 4.8 nm (8.8 km) SE. Retrieved 2019/09/16 02:12 UTC (5 hours ago):

TAF KSKF 160200Z 1602/1708 09008KT 9999 FEW090 QNH2995INS BECMG 1617/1618 07009KT 9999 SCT060 SCT250 QNH2986INS TX35/1621Z TN23/1611Z